sensor_id;sensor_type;location;lat;lon;timestamp;P1;durP1;ratioP1;P2;durP2;ratioP2
23743;SDS011;12052;53.478;10.182;2022-11-15T00:00:43;50.30;;;20.70;;
23743;SDS011;12052;53.478;10.182;2022-11-15T00:03:09;42.58;;;17.70;;
23743;SDS011;12052;53.478;10.182;2022-11-15T00:05:35;44.45;;;20.10;;
23743;SDS011;12052;53.478;10.182;2022-11-15T00:08:01;41.67;;;18.27;;
23743;SDS011;12052;53.478;10.182;2022-11-15T00:10:26;36.80;;;17.42;;
23743;SDS011;12052;53.478;10.182;2022-11-15T00:12:52;41.58;;;17.77;;
23743;SDS011;12052;53.478;10.182;2022-11-15T00:15:18;45.33;;;19.70;;
23743;SDS011;12052;53.478;10.182;2022-11-15T00:17:43;41.97;;;19.20;;
23743;SDS011;12052;53.478;10.182;2022-11-15T00:20:09;42.97;;;18.58;;
23743;SDS011;12052;53.478;10.182;2022-11-15T00:22:36;41.33;;;19.13;;
23743;SDS011;12052;53.478;10.182;2022-11-15T00:25:02;43.70;;;19.42;;
23743;SDS011;12052;53.478;10.182;2022-11-15T00:27:28;48.40;;;19.27;;
23743;SDS011;12052;53.478;10.182;2022-11-15T00:29:53;39.63;;;18.13;;
23743;SDS011;12052;53.478;10.182;2022-11-15T00:32:19;49.20;;;19.85;;
23743;SDS011;12052;53.478;10.182;2022-11-15T00:34:44;44.30;;;19.15;;
23743;SDS011;12052;53.478;10.182;2022-11-15T00:37:10;44.13;;;19.00;;
23743;SDS011;12052;53.478;10.182;2022-11-15T00:39:36;40.50;;;18.73;;
23743;SDS011;12052;53.478;10.182;2022-11-15T00:42:01;45.28;;;18.10;;
23743;SDS011;12052;53.478;10.182;2022-11-15T00:44:27;44.47;;;19.23;;
23743;SDS011;12052;53.478;10.182;2022-11-15T00:46:52;42.65;;;19.15;;
23743;SDS011;12052;53.478;10.182;2022-11-15T00:49:18;41.22;;;19.20;;
23743;SDS011;12052;53.478;10.182;2022-11-15T00:51:43;45.53;;;18.63;;
23743;SDS011;12052;53.478;10.182;2022-11-15T00:54:09;43.90;;;17.63;;
23743;SDS011;12052;53.478;10.182;2022-11-15T00:56:34;43.40;;;18.80;;
23743;SDS011;12052;53.478;10.182;2022-11-15T00:59:00;40.75;;;18.60;;
23743;SDS011;12052;53.478;10.182;2022-11-15T01:01:26;36.97;;;18.13;;
23743;SDS011;12052;53.478;10.182;2022-11-15T01:03:51;44.03;;;20.30;;
23743;SDS011;12052;53.478;10.182;2022-11-15T01:06:17;40.17;;;19.08;;
23743;SDS011;12052;53.478;10.182;2022-11-15T01:08:42;39.33;;;18.00;;
23743;SDS011;12052;53.478;10.182;2022-11-15T01:11:10;45.53;;;19.13;;
23743;SDS011;12052;53.478;10.182;2022-11-15T01:13:37;41.05;;;18.10;;
23743;SDS011;12052;53.478;10.182;2022-11-15T01:16:10;44.10;;;18.02;;
23743;SDS011;12052;53.478;10.182;2022-11-15T01:18:39;42.78;;;17.80;;
23743;SDS011;12052;53.478;10.182;2022-11-15T01:21:08;41.30;;;17.90;;
23743;SDS011;12052;53.478;10.182;2022-11-15T01:23:35;44.17;;;19.52;;
23743;SDS011;12052;53.478;10.182;2022-11-15T01:26:02;37.22;;;17.48;;
23743;SDS011;12052;53.478;10.182;2022-11-15T01:28:29;41.50;;;18.45;;
23743;SDS011;12052;53.478;10.182;2022-11-15T01:31:00;38.17;;;17.63;;
23743;SDS011;12052;53.478;10.182;2022-11-15T01:33:26;43.70;;;18.00;;
23743;SDS011;12052;53.478;10.182;2022-11-15T01:35:53;43.67;;;18.15;;
23743;SDS011;12052;53.478;10.182;2022-11-15T01:38:18;41.92;;;17.75;;
23743;SDS011;12052;53.478;10.182;2022-11-15T01:40:44;44.28;;;18.13;;
23743;SDS011;12052;53.478;10.182;2022-11-15T01:43:26;43.50;;;19.02;;
23743;SDS011;12052;53.478;10.182;2022-11-15T01:46:02;42.67;;;18.27;;
23743;SDS011;12052;53.478;10.182;2022-11-15T01:48:38;38.00;;;16.90;;
23743;SDS011;12052;53.478;10.182;2022-11-15T01:51:06;40.70;;;16.60;;
23743;SDS011;12052;53.478;10.182;2022-11-15T01:53:34;40.97;;;17.00;;
23743;SDS011;12052;53.478;10.182;2022-11-15T01:56:03;40.42;;;16.75;;
23743;SDS011;12052;53.478;10.182;2022-11-15T01:58:31;38.72;;;17.95;;
23743;SDS011;12052;53.478;10.182;2022-11-15T02:00:58;39.50;;;17.95;;
23743;SDS011;12052;53.478;10.182;2022-11-15T02:03:25;38.10;;;16.63;;
23743;SDS011;12052;53.478;10.182;2022-11-15T02:05:56;36.47;;;16.02;;
23743;SDS011;12052;53.478;10.182;2022-11-15T02:08:23;40.72;;;17.20;;
23743;SDS011;12052;53.478;10.182;2022-11-15T02:10:48;46.15;;;18.92;;
23743;SDS011;12052;53.478;10.182;2022-11-15T02:13:14;40.17;;;17.52;;
23743;SDS011;12052;53.478;10.182;2022-11-15T02:18:32;35.75;;;17.42;;
23743;SDS011;12052;53.478;10.182;2022-11-15T02:24:03;40.17;;;17.45;;
23743;SDS011;12052;53.478;10.182;2022-11-15T02:43:07;37.08;;;16.63;;
23743;SDS011;12052;53.478;10.182;2022-11-15T02:46:05;39.33;;;17.17;;
23743;SDS011;12052;53.478;10.182;2022-11-15T02:48:32;37.33;;;17.15;;
23743;SDS011;12052;53.478;10.182;2022-11-15T02:50:59;34.25;;;17.77;;
23743;SDS011;12052;53.478;10.182;2022-11-15T02:53:26;38.63;;;16.77;;
23743;SDS011;12052;53.478;10.182;2022-11-15T02:55:52;39.05;;;16.35;;
23743;SDS011;12052;53.478;10.182;2022-11-15T03:04:51;33.72;;;15.82;;
23743;SDS011;12052;53.478;10.182;2022-11-15T03:08:18;32.75;;;15.02;;
23743;SDS011;12052;53.478;10.182;2022-11-15T03:10:23;34.03;;;15.45;;
23743;SDS011;12052;53.478;10.182;2022-11-15T03:13:03;36.05;;;16.00;;
23743;SDS011;12052;53.478;10.182;2022-11-15T03:15:49;33.05;;;16.50;;
23743;SDS011;12052;53.478;10.182;2022-11-15T03:18:21;35.38;;;15.93;;
23743;SDS011;12052;53.478;10.182;2022-11-15T03:20:59;35.38;;;15.75;;
23743;SDS011;12052;53.478;10.182;2022-11-15T03:23:28;34.22;;;15.73;;
23743;SDS011;12052;53.478;10.182;2022-11-15T03:25:55;39.08;;;16.38;;
23743;SDS011;12052;53.478;10.182;2022-11-15T03:28:24;34.25;;;15.85;;
23743;SDS011;12052;53.478;10.182;2022-11-15T03:31:02;31.88;;;15.43;;
23743;SDS011;12052;53.478;10.182;2022-11-15T03:33:51;28.40;;;12.98;;
23743;SDS011;12052;53.478;10.182;2022-11-15T03:36:20;31.42;;;15.43;;
23743;SDS011;12052;53.478;10.182;2022-11-15T03:38:48;31.42;;;15.38;;
23743;SDS011;12052;53.478;10.182;2022-11-15T03:41:35;40.20;;;16.13;;
23743;SDS011;12052;53.478;10.182;2022-11-15T03:46:47;31.05;;;15.00;;
23743;SDS011;12052;53.478;10.182;2022-11-15T03:49:24;35.50;;;15.82;;
23743;SDS011;12052;53.478;10.182;2022-11-15T03:51:56;39.60;;;15.52;;
23743;SDS011;12052;53.478;10.182;2022-11-15T03:54:22;29.52;;;14.15;;
23743;SDS011;12052;53.478;10.182;2022-11-15T03:56:48;33.70;;;15.50;;
23743;SDS011;12052;53.478;10.182;2022-11-15T03:59:14;33.38;;;15.38;;
23743;SDS011;12052;53.478;10.182;2022-11-15T04:01:39;32.00;;;14.32;;
23743;SDS011;12052;53.478;10.182;2022-11-15T04:04:05;31.50;;;15.05;;
23743;SDS011;12052;53.478;10.182;2022-11-15T04:06:30;28.30;;;14.10;;
23743;SDS011;12052;53.478;10.182;2022-11-15T04:08:56;34.40;;;15.38;;
23743;SDS011;12052;53.478;10.182;2022-11-15T04:11:21;30.92;;;14.75;;
23743;SDS011;12052;53.478;10.182;2022-11-15T04:13:47;32.63;;;13.93;;
23743;SDS011;12052;53.478;10.182;2022-11-15T04:16:12;31.40;;;14.82;;
23743;SDS011;12052;53.478;10.182;2022-11-15T04:18:38;30.27;;;14.70;;
23743;SDS011;12052;53.478;10.182;2022-11-15T04:21:03;32.10;;;14.52;;
23743;SDS011;12052;53.478;10.182;2022-11-15T04:24:05;29.15;;;13.48;;
23743;SDS011;12052;53.478;10.182;2022-11-15T04:26:39;29.83;;;13.95;;
23743;SDS011;12052;53.478;10.182;2022-11-15T04:29:05;26.52;;;13.55;;
23743;SDS011;12052;53.478;10.182;2022-11-15T04:31:49;27.75;;;12.85;;
23743;SDS011;12052;53.478;10.182;2022-11-15T04:34:15;26.90;;;13.50;;
23743;SDS011;12052;53.478;10.182;2022-11-15T04:36:40;28.30;;;13.32;;
23743;SDS011;12052;53.478;10.182;2022-11-15T04:39:24;28.23;;;13.27;;
23743;SDS011;12052;53.478;10.182;2022-11-15T04:41:50;27.70;;;14.55;;
23743;SDS011;12052;53.478;10.182;2022-11-15T04:44:15;33.75;;;14.73;;
23743;SDS011;12052;53.478;10.182;2022-11-15T04:46:41;34.65;;;14.57;;
23743;SDS011;12052;53.478;10.182;2022-11-15T04:49:07;32.35;;;14.73;;
23743;SDS011;12052;53.478;10.182;2022-11-15T04:51:32;31.95;;;14.25;;
23743;SDS011;12052;53.478;10.182;2022-11-15T04:53:58;30.13;;;14.00;;
23743;SDS011;12052;53.478;10.182;2022-11-15T04:56:24;32.17;;;13.57;;
23743;SDS011;12052;53.478;10.182;2022-11-15T04:58:49;28.92;;;14.38;;
23743;SDS011;12052;53.478;10.182;2022-11-15T05:01:15;30.52;;;14.10;;
23743;SDS011;12052;53.478;10.182;2022-11-15T05:03:41;30.75;;;13.35;;
23743;SDS011;12052;53.478;10.182;2022-11-15T05:06:26;27.50;;;13.02;;
23743;SDS011;12052;53.478;10.182;2022-11-15T05:08:52;29.27;;;14.63;;
23743;SDS011;12052;53.478;10.182;2022-11-15T05:11:18;23.88;;;11.98;;
23743;SDS011;12052;53.478;10.182;2022-11-15T05:13:43;31.48;;;13.63;;
23743;SDS011;12052;53.478;10.182;2022-11-15T05:16:09;28.50;;;14.10;;
23743;SDS011;12052;53.478;10.182;2022-11-15T05:18:35;27.83;;;13.57;;
23743;SDS011;12052;53.478;10.182;2022-11-15T05:21:04;30.27;;;13.27;;
23743;SDS011;12052;53.478;10.182;2022-11-15T05:23:30;30.75;;;13.15;;
23743;SDS011;12052;53.478;10.182;2022-11-15T05:25:59;35.30;;;14.52;;
23743;SDS011;12052;53.478;10.182;2022-11-15T05:28:26;26.80;;;12.90;;
23743;SDS011;12052;53.478;10.182;2022-11-15T05:30:51;30.88;;;14.15;;
23743;SDS011;12052;53.478;10.182;2022-11-15T05:33:17;26.10;;;12.85;;
23743;SDS011;12052;53.478;10.182;2022-11-15T05:35:46;29.83;;;13.52;;
23743;SDS011;12052;53.478;10.182;2022-11-15T05:38:15;28.98;;;13.50;;
23743;SDS011;12052;53.478;10.182;2022-11-15T05:40:41;28.75;;;14.50;;
23743;SDS011;12052;53.478;10.182;2022-11-15T05:43:07;27.48;;;13.15;;
23743;SDS011;12052;53.478;10.182;2022-11-15T05:45:33;30.88;;;12.55;;
23743;SDS011;12052;53.478;10.182;2022-11-15T05:47:59;29.00;;;13.57;;
23743;SDS011;12052;53.478;10.182;2022-11-15T05:50:28;27.77;;;13.25;;
23743;SDS011;12052;53.478;10.182;2022-11-15T05:52:54;25.42;;;13.73;;
23743;SDS011;12052;53.478;10.182;2022-11-15T05:55:20;26.85;;;13.40;;
23743;SDS011;12052;53.478;10.182;2022-11-15T05:57:46;32.83;;;14.82;;
23743;SDS011;12052;53.478;10.182;2022-11-15T06:00:12;30.40;;;12.57;;
23743;SDS011;12052;53.478;10.182;2022-11-15T06:02:38;31.25;;;13.55;;
23743;SDS011;12052;53.478;10.182;2022-11-15T06:05:03;29.58;;;13.85;;
23743;SDS011;12052;53.478;10.182;2022-11-15T06:07:29;30.67;;;13.85;;
23743;SDS011;12052;53.478;10.182;2022-11-15T06:09:55;27.70;;;14.15;;
23743;SDS011;12052;53.478;10.182;2022-11-15T06:12:21;27.92;;;13.05;;
23743;SDS011;12052;53.478;10.182;2022-11-15T06:14:47;31.67;;;14.18;;
23743;SDS011;12052;53.478;10.182;2022-11-15T06:17:12;25.10;;;13.18;;
23743;SDS011;12052;53.478;10.182;2022-11-15T06:19:38;30.83;;;13.77;;
23743;SDS011;12052;53.478;10.182;2022-11-15T06:22:03;25.38;;;13.30;;
23743;SDS011;12052;53.478;10.182;2022-11-15T06:24:29;28.42;;;15.07;;
23743;SDS011;12052;53.478;10.182;2022-11-15T06:26:54;28.38;;;13.95;;
23743;SDS011;12052;53.478;10.182;2022-11-15T06:29:20;27.80;;;13.38;;
23743;SDS011;12052;53.478;10.182;2022-11-15T06:31:45;30.60;;;13.05;;
23743;SDS011;12052;53.478;10.182;2022-11-15T06:34:11;27.25;;;12.50;;
23743;SDS011;12052;53.478;10.182;2022-11-15T06:36:37;29.15;;;14.43;;
23743;SDS011;12052;53.478;10.182;2022-11-15T06:39:03;28.77;;;13.63;;
23743;SDS011;12052;53.478;10.182;2022-11-15T06:41:29;27.45;;;13.55;;
23743;SDS011;12052;53.478;10.182;2022-11-15T06:43:55;26.63;;;12.73;;
23743;SDS011;12052;53.478;10.182;2022-11-15T06:46:21;37.60;;;14.50;;
23743;SDS011;12052;53.478;10.182;2022-11-15T06:48:47;27.83;;;13.07;;
23743;SDS011;12052;53.478;10.182;2022-11-15T06:51:14;28.60;;;13.95;;
23743;SDS011;12052;53.478;10.182;2022-11-15T06:53:39;25.63;;;12.38;;
23743;SDS011;12052;53.478;10.182;2022-11-15T06:56:05;29.95;;;13.68;;
23743;SDS011;12052;53.478;10.182;2022-11-15T06:58:32;28.00;;;13.05;;
23743;SDS011;12052;53.478;10.182;2022-11-15T07:00:58;25.27;;;12.98;;
23743;SDS011;12052;53.478;10.182;2022-11-15T07:03:25;27.25;;;14.15;;
23743;SDS011;12052;53.478;10.182;2022-11-15T07:05:52;25.15;;;13.05;;
23743;SDS011;12052;53.478;10.182;2022-11-15T07:08:19;26.70;;;13.57;;
23743;SDS011;12052;53.478;10.182;2022-11-15T07:10:45;25.02;;;13.73;;
23743;SDS011;12052;53.478;10.182;2022-11-15T07:13:11;28.48;;;13.90;;
23743;SDS011;12052;53.478;10.182;2022-11-15T07:15:36;25.02;;;12.13;;
23743;SDS011;12052;53.478;10.182;2022-11-15T07:18:02;24.55;;;13.07;;
23743;SDS011;12052;53.478;10.182;2022-11-15T07:20:28;29.55;;;14.25;;
23743;SDS011;12052;53.478;10.182;2022-11-15T07:22:59;25.98;;;13.50;;
23743;SDS011;12052;53.478;10.182;2022-11-15T07:25:26;29.70;;;13.50;;
23743;SDS011;12052;53.478;10.182;2022-11-15T07:27:55;30.15;;;13.13;;
23743;SDS011;12052;53.478;10.182;2022-11-15T07:30:24;25.77;;;12.32;;
23743;SDS011;12052;53.478;10.182;2022-11-15T07:32:57;26.80;;;12.63;;
23743;SDS011;12052;53.478;10.182;2022-11-15T07:35:24;26.90;;;12.88;;
23743;SDS011;12052;53.478;10.182;2022-11-15T07:37:54;26.17;;;12.82;;
23743;SDS011;12052;53.478;10.182;2022-11-15T07:40:25;29.92;;;13.55;;
23743;SDS011;12052;53.478;10.182;2022-11-15T07:42:52;28.02;;;13.70;;
23743;SDS011;12052;53.478;10.182;2022-11-15T07:45:23;28.75;;;12.63;;
23743;SDS011;12052;53.478;10.182;2022-11-15T07:47:51;27.40;;;13.52;;
23743;SDS011;12052;53.478;10.182;2022-11-15T07:50:17;29.88;;;13.52;;
23743;SDS011;12052;53.478;10.182;2022-11-15T07:52:43;27.00;;;12.40;;
23743;SDS011;12052;53.478;10.182;2022-11-15T07:55:09;25.95;;;13.57;;
23743;SDS011;12052;53.478;10.182;2022-11-15T07:57:35;26.60;;;12.82;;
23743;SDS011;12052;53.478;10.182;2022-11-15T08:00:01;27.08;;;13.13;;
23743;SDS011;12052;53.478;10.182;2022-11-15T08:02:28;22.98;;;12.25;;
23743;SDS011;12052;53.478;10.182;2022-11-15T08:04:53;31.42;;;13.93;;
23743;SDS011;12052;53.478;10.182;2022-11-15T08:07:19;26.77;;;12.68;;
23743;SDS011;12052;53.478;10.182;2022-11-15T08:09:45;23.85;;;13.35;;
23743;SDS011;12052;53.478;10.182;2022-11-15T08:12:10;23.63;;;12.45;;
23743;SDS011;12052;53.478;10.182;2022-11-15T08:14:36;28.58;;;13.60;;
23743;SDS011;12052;53.478;10.182;2022-11-15T08:17:01;27.17;;;12.80;;
23743;SDS011;12052;53.478;10.182;2022-11-15T08:19:27;24.55;;;12.63;;
23743;SDS011;12052;53.478;10.182;2022-11-15T08:21:52;27.10;;;13.15;;
23743;SDS011;12052;53.478;10.182;2022-11-15T08:24:18;24.20;;;12.75;;
23743;SDS011;12052;53.478;10.182;2022-11-15T08:26:45;26.13;;;13.35;;
23743;SDS011;12052;53.478;10.182;2022-11-15T08:29:11;30.95;;;13.55;;
23743;SDS011;12052;53.478;10.182;2022-11-15T08:31:36;26.15;;;14.00;;
23743;SDS011;12052;53.478;10.182;2022-11-15T08:34:02;25.00;;;12.05;;
23743;SDS011;12052;53.478;10.182;2022-11-15T08:36:29;29.42;;;13.88;;
23743;SDS011;12052;53.478;10.182;2022-11-15T08:38:54;25.75;;;13.63;;
23743;SDS011;12052;53.478;10.182;2022-11-15T08:41:28;27.08;;;13.52;;
23743;SDS011;12052;53.478;10.182;2022-11-15T08:43:56;25.38;;;12.20;;
23743;SDS011;12052;53.478;10.182;2022-11-15T08:46:21;25.88;;;12.80;;
23743;SDS011;12052;53.478;10.182;2022-11-15T08:48:47;27.90;;;12.77;;
23743;SDS011;12052;53.478;10.182;2022-11-15T08:51:13;26.63;;;13.13;;
23743;SDS011;12052;53.478;10.182;2022-11-15T08:53:39;24.45;;;12.80;;
23743;SDS011;12052;53.478;10.182;2022-11-15T08:56:08;24.95;;;12.95;;
23743;SDS011;12052;53.478;10.182;2022-11-15T08:58:35;28.38;;;12.77;;
23743;SDS011;12052;53.478;10.182;2022-11-15T09:01:01;27.83;;;12.20;;
23743;SDS011;12052;53.478;10.182;2022-11-15T09:03:27;30.98;;;12.45;;
23743;SDS011;12052;53.478;10.182;2022-11-15T09:06:00;23.40;;;12.55;;
23743;SDS011;12052;53.478;10.182;2022-11-15T09:08:30;31.02;;;13.00;;
23743;SDS011;12052;53.478;10.182;2022-11-15T09:10:56;26.83;;;12.15;;
23743;SDS011;12052;53.478;10.182;2022-11-15T09:13:22;28.02;;;13.27;;
23743;SDS011;12052;53.478;10.182;2022-11-15T09:15:48;22.73;;;12.35;;
23743;SDS011;12052;53.478;10.182;2022-11-15T09:18:13;21.65;;;12.18;;
23743;SDS011;12052;53.478;10.182;2022-11-15T09:20:39;22.17;;;11.98;;
23743;SDS011;12052;53.478;10.182;2022-11-15T09:23:05;24.50;;;12.73;;
23743;SDS011;12052;53.478;10.182;2022-11-15T09:25:31;18.60;;;10.27;;
23743;SDS011;12052;53.478;10.182;2022-11-15T09:27:57;22.98;;;11.45;;
23743;SDS011;12052;53.478;10.182;2022-11-15T09:30:23;21.40;;;11.15;;
23743;SDS011;12052;53.478;10.182;2022-11-15T09:32:49;18.70;;;10.57;;
23743;SDS011;12052;53.478;10.182;2022-11-15T09:35:15;24.65;;;11.68;;
23743;SDS011;12052;53.478;10.182;2022-11-15T09:37:41;20.98;;;11.45;;
23743;SDS011;12052;53.478;10.182;2022-11-15T09:40:11;20.85;;;11.43;;
23743;SDS011;12052;53.478;10.182;2022-11-15T09:45:20;22.67;;;11.40;;
23743;SDS011;12052;53.478;10.182;2022-11-15T09:50:45;23.35;;;11.63;;
23743;SDS011;12052;53.478;10.182;2022-11-15T09:53:41;24.48;;;11.48;;
23743;SDS011;12052;53.478;10.182;2022-11-15T09:56:22;21.17;;;10.50;;
23743;SDS011;12052;53.478;10.182;2022-11-15T09:59:04;25.27;;;11.70;;
23743;SDS011;12052;53.478;10.182;2022-11-15T10:02:20;26.15;;;12.35;;
23743;SDS011;12052;53.478;10.182;2022-11-15T10:04:23;22.00;;;11.95;;
23743;SDS011;12052;53.478;10.182;2022-11-15T10:06:53;19.48;;;10.75;;
23743;SDS011;12052;53.478;10.182;2022-11-15T10:09:38;17.65;;;10.23;;
23743;SDS011;12052;53.478;10.182;2022-11-15T10:12:14;21.50;;;11.40;;
23743;SDS011;12052;53.478;10.182;2022-11-15T10:14:40;18.58;;;10.90;;
23743;SDS011;12052;53.478;10.182;2022-11-15T10:24:38;21.50;;;11.30;;
23743;SDS011;12052;53.478;10.182;2022-11-15T10:27:09;23.50;;;11.48;;
23743;SDS011;12052;53.478;10.182;2022-11-15T10:29:40;22.48;;;11.68;;
23743;SDS011;12052;53.478;10.182;2022-11-15T10:32:12;20.15;;;11.45;;
23743;SDS011;12052;53.478;10.182;2022-11-15T10:34:39;20.95;;;11.48;;
23743;SDS011;12052;53.478;10.182;2022-11-15T10:37:05;23.35;;;10.98;;
23743;SDS011;12052;53.478;10.182;2022-11-15T10:39:31;22.33;;;11.32;;
23743;SDS011;12052;53.478;10.182;2022-11-15T10:41:58;19.65;;;10.18;;
23743;SDS011;12052;53.478;10.182;2022-11-15T10:44:50;23.25;;;11.32;;
23743;SDS011;12052;53.478;10.182;2022-11-15T10:47:26;19.35;;;10.65;;
23743;SDS011;12052;53.478;10.182;2022-11-15T10:50:26;20.23;;;10.57;;
23743;SDS011;12052;53.478;10.182;2022-11-15T10:52:52;19.95;;;11.18;;
23743;SDS011;12052;53.478;10.182;2022-11-15T10:55:25;22.33;;;10.38;;
23743;SDS011;12052;53.478;10.182;2022-11-15T10:58:02;19.92;;;10.20;;
23743;SDS011;12052;53.478;10.182;2022-11-15T11:00:34;18.77;;;10.55;;
23743;SDS011;12052;53.478;10.182;2022-11-15T11:03:05;21.05;;;9.95;;
23743;SDS011;12052;53.478;10.182;2022-11-15T11:05:45;23.27;;;10.27;;
23743;SDS011;12052;53.478;10.182;2022-11-15T11:10:36;17.02;;;10.25;;
23743;SDS011;12052;53.478;10.182;2022-11-15T11:13:19;20.27;;;10.45;;
23743;SDS011;12052;53.478;10.182;2022-11-15T11:15:50;23.70;;;9.82;;
23743;SDS011;12052;53.478;10.182;2022-11-15T11:18:28;16.35;;;9.48;;
23743;SDS011;12052;53.478;10.182;2022-11-15T11:29:16;17.67;;;9.23;;
23743;SDS011;12052;53.478;10.182;2022-11-15T11:31:52;18.35;;;8.70;;
23743;SDS011;12052;53.478;10.182;2022-11-15T11:34:29;19.15;;;9.38;;
23743;SDS011;12052;53.478;10.182;2022-11-15T11:42:26;15.05;;;8.75;;
23743;SDS011;12052;53.478;10.182;2022-11-15T11:47:39;14.50;;;8.38;;
23743;SDS011;12052;53.478;10.182;2022-11-15T11:50:17;16.67;;;8.52;;
23743;SDS011;12052;53.478;10.182;2022-11-15T11:52:59;18.58;;;9.00;;
23743;SDS011;12052;53.478;10.182;2022-11-15T11:55:36;20.40;;;9.05;;
23743;SDS011;12052;53.478;10.182;2022-11-15T12:06:30;15.57;;;8.95;;
23743;SDS011;12052;53.478;10.182;2022-11-15T12:09:14;24.40;;;9.07;;
23743;SDS011;12052;53.478;10.182;2022-11-15T12:12:47;18.88;;;9.63;;
23743;SDS011;12052;53.478;10.182;2022-11-15T12:14:46;15.05;;;8.50;;
23743;SDS011;12052;53.478;10.182;2022-11-15T12:17:17;16.65;;;8.77;;
23743;SDS011;12052;53.478;10.182;2022-11-15T12:19:48;16.50;;;8.65;;
23743;SDS011;12052;53.478;10.182;2022-11-15T12:24:59;18.83;;;9.60;;
23743;SDS011;12052;53.478;10.182;2022-11-15T12:27:40;17.80;;;9.32;;
23743;SDS011;12052;53.478;10.182;2022-11-15T12:30:18;16.52;;;9.10;;
23743;SDS011;12052;53.478;10.182;2022-11-15T12:32:49;17.08;;;9.38;;
23743;SDS011;12052;53.478;10.182;2022-11-15T12:38:02;16.77;;;9.60;;
23743;SDS011;12052;53.478;10.182;2022-11-15T12:40:32;13.57;;;8.20;;
23743;SDS011;12052;53.478;10.182;2022-11-15T12:43:01;16.57;;;9.20;;
23743;SDS011;12052;53.478;10.182;2022-11-15T12:45:41;19.13;;;8.55;;
23743;SDS011;12052;53.478;10.182;2022-11-15T12:50:53;19.77;;;8.57;;
23743;SDS011;12052;53.478;10.182;2022-11-15T13:17:21;13.95;;;7.30;;
23743;SDS011;12052;53.478;10.182;2022-11-15T13:28:01;12.10;;;7.07;;
23743;SDS011;12052;53.478;10.182;2022-11-15T13:30:58;12.60;;;6.78;;
23743;SDS011;12052;53.478;10.182;2022-11-15T13:33:33;12.32;;;7.40;;
23743;SDS011;12052;53.478;10.182;2022-11-15T13:39:12;14.57;;;7.40;;
23743;SDS011;12052;53.478;10.182;2022-11-15T13:41:48;18.58;;;8.75;;
23743;SDS011;12052;53.478;10.182;2022-11-15T13:44:19;13.05;;;8.02;;
23743;SDS011;12052;53.478;10.182;2022-11-15T13:47:15;14.15;;;7.30;;
23743;SDS011;12052;53.478;10.182;2022-11-15T13:49:43;14.57;;;7.38;;
23743;SDS011;12052;53.478;10.182;2022-11-15T13:52:15;14.18;;;7.80;;
23743;SDS011;12052;53.478;10.182;2022-11-15T13:57:14;12.75;;;7.35;;
23743;SDS011;12052;53.478;10.182;2022-11-15T13:59:53;13.63;;;7.25;;
23743;SDS011;12052;53.478;10.182;2022-11-15T14:02:29;12.07;;;7.10;;
23743;SDS011;12052;53.478;10.182;2022-11-15T14:04:58;14.93;;;7.05;;
23743;SDS011;12052;53.478;10.182;2022-11-15T14:07:28;12.98;;;7.65;;
23743;SDS011;12052;53.478;10.182;2022-11-15T14:09:54;15.07;;;7.28;;
23743;SDS011;12052;53.478;10.182;2022-11-15T14:12:23;14.95;;;8.10;;
23743;SDS011;12052;53.478;10.182;2022-11-15T14:14:58;12.55;;;7.20;;
23743;SDS011;12052;53.478;10.182;2022-11-15T14:19:53;13.35;;;7.13;;
23743;SDS011;12052;53.478;10.182;2022-11-15T14:22:28;13.32;;;7.25;;
23743;SDS011;12052;53.478;10.182;2022-11-15T14:27:33;14.45;;;7.47;;
23743;SDS011;12052;53.478;10.182;2022-11-15T14:29:59;14.30;;;7.60;;
23743;SDS011;12052;53.478;10.182;2022-11-15T14:32:26;13.75;;;7.15;;
23743;SDS011;12052;53.478;10.182;2022-11-15T14:34:54;19.75;;;7.95;;
23743;SDS011;12052;53.478;10.182;2022-11-15T14:37:25;15.48;;;8.27;;
23743;SDS011;12052;53.478;10.182;2022-11-15T14:39:52;16.48;;;8.13;;
23743;SDS011;12052;53.478;10.182;2022-11-15T14:42:19;16.83;;;7.72;;
23743;SDS011;12052;53.478;10.182;2022-11-15T14:44:46;12.65;;;7.45;;
23743;SDS011;12052;53.478;10.182;2022-11-15T14:47:12;16.83;;;7.88;;
23743;SDS011;12052;53.478;10.182;2022-11-15T14:49:38;14.82;;;7.70;;
23743;SDS011;12052;53.478;10.182;2022-11-15T14:52:22;11.75;;;7.22;;
23743;SDS011;12052;53.478;10.182;2022-11-15T14:54:50;14.73;;;7.43;;
23743;SDS011;12052;53.478;10.182;2022-11-15T14:57:15;15.02;;;7.32;;
23743;SDS011;12052;53.478;10.182;2022-11-15T14:59:41;16.20;;;7.50;;
23743;SDS011;12052;53.478;10.182;2022-11-15T15:02:09;12.02;;;7.15;;
23743;SDS011;12052;53.478;10.182;2022-11-15T15:04:49;11.65;;;7.15;;
23743;SDS011;12052;53.478;10.182;2022-11-15T15:07:15;11.95;;;6.97;;
23743;SDS011;12052;53.478;10.182;2022-11-15T15:09:41;11.65;;;6.85;;
23743;SDS011;12052;53.478;10.182;2022-11-15T15:12:28;17.25;;;8.48;;
23743;SDS011;12052;53.478;10.182;2022-11-15T15:14:54;15.45;;;7.10;;
23743;SDS011;12052;53.478;10.182;2022-11-15T15:17:19;15.30;;;7.30;;
23743;SDS011;12052;53.478;10.182;2022-11-15T15:19:45;12.68;;;7.07;;
23743;SDS011;12052;53.478;10.182;2022-11-15T15:22:15;15.02;;;7.80;;
23743;SDS011;12052;53.478;10.182;2022-11-15T15:24:42;14.35;;;6.95;;
23743;SDS011;12052;53.478;10.182;2022-11-15T15:27:11;15.23;;;7.63;;
23743;SDS011;12052;53.478;10.182;2022-11-15T15:29:37;14.20;;;7.75;;
23743;SDS011;12052;53.478;10.182;2022-11-15T15:32:04;13.68;;;7.50;;
23743;SDS011;12052;53.478;10.182;2022-11-15T15:34:30;15.05;;;6.68;;
23743;SDS011;12052;53.478;10.182;2022-11-15T15:37:06;18.85;;;10.63;;
23743;SDS011;12052;53.478;10.182;2022-11-15T15:39:32;16.38;;;8.75;;
23743;SDS011;12052;53.478;10.182;2022-11-15T15:41:57;17.75;;;8.80;;
23743;SDS011;12052;53.478;10.182;2022-11-15T15:44:23;26.75;;;11.70;;
23743;SDS011;12052;53.478;10.182;2022-11-15T15:46:49;25.58;;;11.77;;
23743;SDS011;12052;53.478;10.182;2022-11-15T15:49:14;27.05;;;12.98;;
23743;SDS011;12052;53.478;10.182;2022-11-15T15:51:40;32.53;;;18.52;;
23743;SDS011;12052;53.478;10.182;2022-11-15T15:54:06;22.83;;;12.82;;
23743;SDS011;12052;53.478;10.182;2022-11-15T15:56:31;19.17;;;10.00;;
23743;SDS011;12052;53.478;10.182;2022-11-15T15:58:57;14.18;;;8.35;;
23743;SDS011;12052;53.478;10.182;2022-11-15T16:01:22;15.32;;;7.72;;
23743;SDS011;12052;53.478;10.182;2022-11-15T16:03:49;16.05;;;8.85;;
23743;SDS011;12052;53.478;10.182;2022-11-15T16:06:34;14.27;;;8.40;;
23743;SDS011;12052;53.478;10.182;2022-11-15T16:09:03;19.00;;;8.45;;
23743;SDS011;12052;53.478;10.182;2022-11-15T16:11:28;12.48;;;7.13;;
23743;SDS011;12052;53.478;10.182;2022-11-15T16:13:54;14.85;;;8.27;;
23743;SDS011;12052;53.478;10.182;2022-11-15T16:16:20;15.63;;;8.65;;
23743;SDS011;12052;53.478;10.182;2022-11-15T16:18:47;22.85;;;9.30;;
23743;SDS011;12052;53.478;10.182;2022-11-15T16:21:12;17.30;;;8.57;;
23743;SDS011;12052;53.478;10.182;2022-11-15T16:23:38;15.35;;;8.80;;
23743;SDS011;12052;53.478;10.182;2022-11-15T16:26:09;19.17;;;8.73;;